Rechercher aéroport 
image banner adimage banner adimage banner ad
image banner ad

32CL - Bob's Flying Service Inc

Situé à Knights Landing, United States

ICAO - 32CL, IATA -

Données fournies par Airmate  

Information générale

Coordonnées: N38°49'60" W121°43'4"
Élévation : 40 feet MSL.
Variation magnétique : 16° East
Voir autres Aéroports à California

Données opérationnelles

Special qualification required
Heure actuelle UTC:
Heure actuelle locale:
Météo à : KSMF - Sacramento Intl ( 19 km )
METAR: KSMF 180553Z 16010KT 10SM CLR 16/11 A2993 RMK AO2 SLP133 T01560106 10289 20156 51016
TAF: KSMF 180526Z 1806/1906 19010KT P6SM SKC FM181600 17015G21KT P6SM BKN250 FM190300 19007KT P6SM BKN050
Voir NOTAMs / SUP AIP / TFR affectant cet aéroport [VIEW]
Fréquences de communication: [VIEW]

Pistes:

Identifiant RWYQFULongueur (ft)Largeur (ft)SurfaceLDA (ft)
N250050OTHER
S250050OTHER

Coordonnées de l'aéroport

Adresse: Knights Landing United States

Vue satellite de 32CL